Nahodka, Russia
Current Conditions -  °F | °C
As of 9:00 AM on Thursday 27 Nov 2014 (Local Time) from UHWW Reporting Station
Overcast Overcast  
Wind Chill: 34°   Ceiling: 1800
Heat Index: 37°   Visibility: 6mi
Dew Point: 27°   Wind: 4mph
Humidity: 65%   Direction: NA
Pressure: 30.18"   Gusts: NA
Location:  42.83°N, 132.89°E
Report Text: UHWW 262300Z VRB02MPS 9999 OVC018 03/M03 Q1022 NOSIG RMKQFE765/1021 25LRD70
Loading
Personal Weather Stations






























Interactive Weather Map New forecast layout! Learn more

10-Day Weather Forecast

Advertisements
Track Severe Weather on mobile